Terminal Aerodrome Forecast
Issued by NWS

Home | Current Version | Previous Version | Text Only | Print | Product List | Glossary On
Versions: 1 2 3 4 5 6 7 8 9 10 11 12 13
000
FTPQ31 PGUM 252300
TAFPQ
TAF

PKMJ 252321Z 2600/2624 11010KT P6SM VCSH FEW015 SCT050 BKN120
      TEMPO 2600/2603 4SM SHRA SCT012 BKN025=

USA.gov is the U.S. government's official web portal to all federal, state and local government web resources and services.